الصفحة الرئيسية
METAR-TAF:

METAR-TAF

مطار :

مطار انجمينا الدولي

انجمينا, تشاد

دائرة عرض: 12-08N, خط طول: 015-02E, ارتفاع: 295 متر

مراقبة الطقس الحالي

تاريخ ووقت الإصدار 39 دقيقة قبل الساعة 23:00UTC
ريح 2 عقدة من الجنوب/الجنوب الغربي
درجة الحرارة 24°درجة مئوية
الرطوبة 65%
ضغط 1009 hPa
الرؤية 10 كم أو أكثر
الغيوم لا تقل 1500 م ولا وجود لمزنة ركامية السحاب الأسود

METAR: FTTJ 172300Z 20002KT CAVOK 24/17 Q1009 NOSIG

زمن: 00:39 (23:39 UTC)

توقعات

تاريخ ووقت الإصدار 39 دقيقة قبل الساعة 23:00UTC
التوقعات صالحة من18 الساعة 00 UTC إلى 19 الساعة 06 UTC
ريح 8 عقدة من الشرق/الشمال الشرقي
الرؤية 10 كم أو أكثر
الغيوم لا تقل 1500 م ولا وجود لمزنة ركامية السحاب الأسود
مؤقت
من 18 الساعة 04 UTC إلى 18 الساعة 09 UTC
الرؤية: 3000 متر
العجاج
مؤقت
من 18 الساعة 17 UTC إلى 18 الساعة 20 UTC
الرؤية: 3000 متر
العجاج

TAF: FTTJ 172300Z 1800/1906 06008KT CAVOK TEMPO 1804/1809 3000 HZ TEMPO 1817/1820 3000 HZ

أرصاد الطقس والتوقعات من أكثر من 4000 مطار (تقارير الطقس للمطار METAR والتنبؤ بالطقس بالمطارTAF).

المحطات المتاحة هي النقط الصفراء والحمراء على الخريطة.

حرك المؤشر فوق النقطة لمعرفة اسم المحطة.

ثم انقر لمعرفة أرصاد وتوقعات الطقس.

لتغيير الخارطة: اضغط على الأزرار الخضراء مع رمز الصليب الأسود للتكبير. على الزر الأخضر مع شرطة للتصغير، أو على الأسهم الخضراء للخرائط المجاورة.


METAR-TAF: